Time;durP1;ratioP1;P1;durP2;ratioP2;P2;SDS_P1;SDS_P2;PMS_P1;PMS_P2;Temp;Humidity;BMP_temperature;BMP_pressure;BME280_temperature;BME280_humidity;BME280_pressure;Samples;Min_cycle;Max_cycle;Signal;HPM_P1;HPM_P2
2022/04/02 00:02:17;;;;;;;0.57;0.57;;;1.40;99.90;;;;;;5060397;28;20722;-83
2022/04/02 00:04:44;;;;;;;0.73;0.73;;;1.40;99.90;;;;;;5065267;28;20265;-82
2022/04/02 00:07:11;;;;;;;1.43;0.37;;;1.40;99.90;;;;;;5064460;28;20474;-84
2022/04/02 00:09:38;;;;;;;1.65;1.25;;;1.50;99.90;;;;;;5063566;28;20508;-81
2022/04/02 00:12:07;;;;;;;0.30;0.30;;;1.50;99.90;;;;;;5065088;28;20200;-83
2022/04/02 00:14:35;;;;;;;0.40;0.23;;;1.60;99.90;;;;;;5059261;28;20463;-83
2022/04/02 00:17:03;;;;;;;1.10;0.30;;;1.50;99.90;;;;;;5061808;28;20544;-83
2022/04/02 00:19:30;;;;;;;1.33;0.73;;;1.50;99.90;;;;;;5064671;28;20526;-83
2022/04/02 00:21:57;;;;;;;0.30;0.10;;;1.60;99.90;;;;;;5066259;28;20456;-84
2022/04/02 00:24:25;;;;;;;0.83;0.83;;;1.50;99.90;;;;;;5062503;28;20280;-83
2022/04/02 00:26:52;;;;;;;0.40;0.30;;;1.50;99.90;;;;;;5065452;28;21018;-81
2022/04/02 00:29:19;;;;;;;0.30;0.20;;;1.60;99.90;;;;;;5063265;28;20505;-81
2022/04/02 00:31:47;;;;;;;2.20;2.00;;;1.50;99.90;;;;;;5057191;28;20545;-85
2022/04/02 00:34:14;;;;;;;0.30;0.10;;;1.50;99.90;;;;;;5068331;28;20444;-81
2022/04/02 00:36:41;;;;;;;1.50;1.50;;;1.50;99.90;;;;;;5065370;28;20499;-84
2022/04/02 00:39:09;;;;;;;0.30;0.10;;;1.60;99.90;;;;;;5065965;28;20482;-82
2022/04/02 00:41:36;;;;;;;0.30;0.10;;;1.60;99.90;;;;;;5062915;28;20476;-86
2022/04/02 00:44:10;;;;;;;0.55;0.55;;;1.60;99.90;;;;;;5062606;28;20536;-84
2022/04/02 00:46:38;;;;;;;0.60;0.60;;;1.50;99.90;;;;;;5062041;28;20288;-82
2022/04/02 00:49:07;;;;;;;0.30;0.20;;;1.50;99.90;;;;;;5064407;28;21071;-83
2022/04/02 00:51:41;;;;;;;0.40;0.23;;;1.50;99.90;;;;;;5056606;28;20463;-84
2022/04/02 00:54:09;;;;;;;0.87;0.87;;;1.50;99.90;;;;;;5060020;28;20462;-83
2022/04/02 00:56:37;;;;;;;0.30;0.20;;;1.50;99.90;;;;;;5063648;28;20562;-83
2022/04/02 00:59:04;;;;;;;0.30;0.20;;;1.50;99.90;;;;;;5064925;28;20218;-84
2022/04/02 01:01:32;;;;;;;0.30;0.10;;;1.50;99.90;;;;;;5064279;28;21031;-87
2022/04/02 01:03:59;;;;;;;0.30;0.20;;;1.40;99.90;;;;;;5063410;28;20283;-83
2022/04/02 01:06:28;;;;;;;0.52;0.47;;;1.40;99.90;;;;;;5056903;28;20272;-89
2022/04/02 01:08:55;;;;;;;0.30;0.20;;;1.40;99.90;;;;;;5063325;28;20291;-82
2022/04/02 01:11:22;;;;;;;1.08;1.08;;;1.40;99.90;;;;;;5066137;28;20201;-85
2022/04/02 01:13:50;;;;;;;0.30;0.20;;;1.40;99.90;;;;;;5056751;28;20660;-81
2022/04/02 01:16:17;;;;;;;0.30;0.10;;;1.50;99.90;;;;;;5054862;28;20449;-82
2022/04/02 01:18:44;;;;;;;0.30;0.10;;;1.40;99.90;;;;;;5069743;28;20443;-83
2022/04/02 01:21:11;;;;;;;0.30;0.15;;;1.30;99.90;;;;;;5059074;28;20315;-83
2022/04/02 01:23:39;;;;;;;0.95;0.95;;;1.30;99.90;;;;;;5059841;28;20366;-83
2022/04/02 01:26:06;;;;;;;0.30;0.10;;;1.30;99.90;;;;;;5062011;28;20258;-84
2022/04/02 01:28:34;;;;;;;0.30;0.20;;;1.30;99.90;;;;;;5056674;28;20201;-85
2022/04/02 01:31:04;;;;;;;0.30;0.20;;;1.30;99.90;;;;;;5060383;28;20318;-81
2022/04/02 01:33:31;;;;;;;0.30;0.10;;;1.30;99.90;;;;;;5063838;28;20221;-82
2022/04/02 01:35:59;;;;;;;0.30;0.10;;;1.30;99.90;;;;;;5066702;28;20211;-83
2022/04/02 01:38:27;;;;;;;0.50;0.50;;;1.30;99.90;;;;;;5057319;28;20560;-81
2022/04/02 01:40:56;;;;;;;0.40;0.30;;;1.30;99.90;;;;;;5052751;28;20781;-81
2022/04/02 01:43:23;;;;;;;0.30;0.20;;;1.40;99.90;;;;;;5063804;28;20647;-82
2022/04/02 01:45:54;;;;;;;0.30;0.10;;;1.30;99.90;;;;;;5059678;28;20198;-83
2022/04/02 01:48:21;;;;;;;0.65;0.65;;;1.30;99.90;;;;;;5058749;28;20211;-83
2022/04/02 01:50:49;;;;;;;0.30;0.10;;;1.30;99.90;;;;;;5065219;28;20207;-82
2022/04/02 01:53:16;;;;;;;0.50;0.50;;;1.30;99.90;;;;;;5060966;28;20249;-83
2022/04/02 01:55:43;;;;;;;0.30;0.20;;;1.30;99.90;;;;;;5061818;28;20197;-83
2022/04/02 01:58:11;;;;;;;0.30;0.20;;;1.30;99.90;;;;;;5056942;28;20226;-85
2022/04/02 02:00:38;;;;;;;0.30;0.10;;;1.10;99.90;;;;;;5066005;28;20232;-83
2022/04/02 02:03:06;;;;;;;0.40;0.40;;;1.20;99.90;;;;;;5061817;28;20203;-83
2022/04/02 02:05:33;;;;;;;0.40;0.32;;;1.20;99.90;;;;;;5055197;28;20667;-83
2022/04/02 02:08:01;;;;;;;0.30;0.10;;;1.30;99.90;;;;;;5061552;28;20196;-86
2022/04/02 02:10:28;;;;;;;0.40;0.30;;;1.30;99.90;;;;;;5063736;28;20283;-83
2022/04/02 02:12:55;;;;;;;0.30;0.20;;;1.30;99.90;;;;;;5061318;28;20667;-83
2022/04/02 02:15:24;;;;;;;0.30;0.10;;;1.30;99.90;;;;;;5062429;28;20208;-83
2022/04/02 02:17:51;;;;;;;0.30;0.17;;;1.30;99.90;;;;;;5066951;28;20199;-86
2022/04/02 02:20:19;;;;;;;0.30;0.20;;;1.20;99.90;;;;;;5060954;28;20275;-83
2022/04/02 02:22:47;;;;;;;0.30;0.20;;;1.40;99.90;;;;;;5060356;28;20783;-85
2022/04/02 02:25:16;;;;;;;0.30;0.10;;;1.40;99.90;;;;;;5065192;28;20199;-84
2022/04/02 02:27:45;;;;;;;0.43;0.43;;;1.40;99.90;;;;;;5064260;28;20254;-85
2022/04/02 02:30:13;;;;;;;0.30;0.10;;;1.40;99.90;;;;;;5061375;28;20207;-83
2022/04/02 02:32:42;;;;;;;0.30;0.10;;;1.20;99.90;;;;;;5066945;28;20248;-84
2022/04/02 02:38:03;;;;;;;0.30;0.20;;;1.20;99.90;;;;;;5063340;28;20227;-83
2022/04/02 02:40:30;;;;;;;1.00;1.00;;;1.40;99.90;;;;;;5060432;28;20224;-86
2022/04/02 02:42:57;;;;;;;0.30;0.10;;;1.30;99.90;;;;;;5065556;28;20210;-84
2022/04/02 02:45:24;;;;;;;0.30;0.20;;;1.30;99.90;;;;;;5065597;28;20242;-86
2022/04/02 02:47:53;;;;;;;0.30;0.10;;;1.20;99.90;;;;;;5057720;28;20196;-82
2022/04/02 02:50:20;;;;;;;0.30;0.10;;;1.10;99.90;;;;;;5064455;28;20203;-82
2022/04/02 02:52:47;;;;;;;0.30;0.22;;;1.10;99.90;;;;;;5067254;28;20246;-84
2022/04/02 02:55:14;;;;;;;0.30;0.20;;;1.20;99.90;;;;;;5066006;28;20204;-85
2022/04/02 02:57:41;;;;;;;2.63;2.42;;;1.20;99.90;;;;;;5062166;28;20201;-82
2022/04/02 03:00:09;;;;;;;0.30;0.20;;;1.20;99.90;;;;;;5066638;28;20227;-83
2022/04/02 03:02:37;;;;;;;0.30;0.20;;;1.10;99.90;;;;;;5068817;28;20212;-83
2022/04/02 03:05:10;;;;;;;0.73;0.50;;;1.20;99.90;;;;;;5058469;28;20192;-83
2022/04/02 03:07:38;;;;;;;0.82;0.40;;;1.10;99.90;;;;;;5066727;28;20258;-85
2022/04/02 03:10:05;;;;;;;0.73;0.73;;;1.20;99.90;;;;;;5070964;28;20716;-81
2022/04/02 03:12:33;;;;;;;0.30;0.10;;;1.10;99.90;;;;;;5064307;28;20193;-84
2022/04/02 03:15:01;;;;;;;1.45;1.05;;;1.10;99.90;;;;;;5055711;28;20225;-86
2022/04/02 03:17:30;;;;;;;0.40;0.40;;;1.00;99.90;;;;;;5061491;28;20196;-86
2022/04/02 03:19:57;;;;;;;0.35;0.25;;;1.00;99.90;;;;;;5067224;28;20249;-84
2022/04/02 03:22:27;;;;;;;0.30;0.20;;;1.00;99.90;;;;;;5054770;28;20202;-83
2022/04/02 03:24:54;;;;;;;0.30;0.15;;;1.00;99.90;;;;;;5070497;28;20333;-83
2022/04/02 03:27:21;;;;;;;0.30;0.20;;;1.10;99.90;;;;;;5061998;28;20779;-83
2022/04/02 03:29:48;;;;;;;0.30;0.20;;;1.00;99.90;;;;;;5067071;28;20258;-86
2022/04/02 03:32:15;;;;;;;0.60;0.55;;;0.90;99.90;;;;;;5068696;28;20684;-82
2022/04/02 03:34:42;;;;;;;0.30;0.10;;;0.80;99.90;;;;;;5065883;28;20200;-83
2022/04/02 03:37:09;;;;;;;0.30;0.10;;;0.80;99.90;;;;;;5067416;28;20200;-87
2022/04/02 03:39:38;;;;;;;0.82;0.80;;;0.80;99.90;;;;;;5058816;28;20265;-85
2022/04/02 03:42:05;;;;;;;5.10;2.38;;;0.70;99.90;;;;;;5059606;28;20196;-84
2022/04/02 03:44:32;;;;;;;0.30;0.10;;;0.60;99.90;;;;;;5067769;28;20199;-85
2022/04/02 03:47:11;;;;;;;0.40;0.40;;;0.50;99.90;;;;;;5062505;28;20257;-84
2022/04/02 03:49:39;;;;;;;0.38;0.25;;;0.60;99.90;;;;;;5066058;28;20195;-83
2022/04/02 03:52:07;;;;;;;0.77;0.77;;;0.60;99.90;;;;;;5069232;28;20644;-85
2022/04/02 03:54:35;;;;;;;0.30;0.10;;;0.70;99.90;;;;;;5062773;28;20583;-83
2022/04/02 03:57:04;;;;;;;0.30;0.20;;;0.70;99.90;;;;;;5060444;28;20250;-83
2022/04/02 03:59:31;;;;;;;0.30;0.20;;;0.70;99.90;;;;;;5063545;28;20199;-83
2022/04/02 04:01:59;;;;;;;1.05;0.55;;;0.80;99.90;;;;;;5064491;28;20195;-82
2022/04/02 04:04:27;;;;;;;0.30;0.20;;;0.80;99.90;;;;;;5068260;28;20194;-81
2022/04/02 04:06:56;;;;;;;0.30;0.20;;;0.80;99.90;;;;;;5066941;28;20703;-87
2022/04/02 04:09:23;;;;;;;0.38;0.30;;;0.80;99.90;;;;;;5066516;28;20204;-82
2022/04/02 04:11:50;;;;;;;2.25;0.43;;;0.70;99.90;;;;;;5058742;28;20211;-84
2022/04/02 04:14:19;;;;;;;0.80;0.75;;;0.70;99.90;;;;;;5063368;28;20192;-83
2022/04/02 04:16:47;;;;;;;0.30;0.17;;;0.60;99.90;;;;;;5061389;28;20198;-83
2022/04/02 04:19:14;;;;;;;0.30;0.20;;;0.60;99.90;;;;;;5067803;28;20313;-83
2022/04/02 04:21:42;;;;;;;0.30;0.10;;;0.50;99.90;;;;;;5063951;28;20309;-81
2022/04/02 04:24:11;;;;;;;1.75;1.75;;;0.60;99.90;;;;;;5060519;28;20194;-83
2022/04/02 04:26:39;;;;;;;0.30;0.10;;;0.60;99.90;;;;;;5068995;28;20210;-82
2022/04/02 04:29:06;;;;;;;0.30;0.10;;;0.50;99.90;;;;;;5059701;28;20246;-86
2022/04/02 04:31:34;;;;;;;0.30;0.10;;;0.60;99.90;;;;;;5063277;28;20202;-83
2022/04/02 04:34:02;;;;;;;0.30;0.10;;;0.60;99.90;;;;;;5065832;28;20253;-84
2022/04/02 04:36:30;;;;;;;0.40;0.20;;;0.60;99.90;;;;;;5063617;28;20793;-85
2022/04/02 04:38:57;;;;;;;0.30;0.10;;;0.50;99.90;;;;;;5066016;28;20597;-82
2022/04/02 04:41:24;;;;;;;0.30;0.20;;;0.50;99.90;;;;;;5055696;28;20268;-83
2022/04/02 04:43:51;;;;;;;0.30;0.20;;;0.50;99.90;;;;;;5060700;28;20215;-81
2022/04/02 04:46:20;;;;;;;0.70;0.65;;;0.60;99.90;;;;;;5049885;28;20200;-83
2022/04/02 04:48:49;;;;;;;0.30;0.20;;;0.60;99.90;;;;;;5062601;28;20657;-82
2022/04/02 04:51:18;;;;;;;0.30;0.10;;;0.60;99.90;;;;;;5056282;28;20205;-83
2022/04/02 04:53:46;;;;;;;0.30;0.10;;;0.60;99.90;;;;;;5058319;28;20219;-83
2022/04/02 04:56:13;;;;;;;0.95;0.82;;;0.60;99.90;;;;;;5059399;28;20211;-81
2022/04/02 04:58:40;;;;;;;0.30;0.15;;;0.60;99.90;;;;;;5062456;28;20572;-80
2022/04/02 05:01:08;;;;;;;0.30;0.10;;;0.70;99.90;;;;;;5064150;28;20230;-83
2022/04/02 05:03:35;;;;;;;0.30;0.10;;;0.70;99.90;;;;;;5061928;28;20207;-83
2022/04/02 05:06:05;;;;;;;0.30;0.10;;;0.60;99.90;;;;;;5051360;28;20266;-83
2022/04/02 05:08:33;;;;;;;1.15;0.38;;;0.70;99.90;;;;;;5050037;28;20215;-83
2022/04/02 05:11:00;;;;;;;0.30;0.10;;;0.70;99.90;;;;;;5048826;28;20262;-84
2022/04/02 05:13:28;;;;;;;0.30;0.10;;;0.70;99.90;;;;;;5042537;28;20606;-82
2022/04/02 05:15:55;;;;;;;0.30;0.20;;;0.60;99.90;;;;;;5049588;28;20545;-82
2022/04/02 05:18:22;;;;;;;0.38;0.25;;;0.70;99.90;;;;;;5042383;28;20211;-85
2022/04/02 05:20:49;;;;;;;0.30;0.20;;;0.80;99.90;;;;;;5058827;28;20232;-82
2022/04/02 05:23:18;;;;;;;0.85;0.85;;;0.80;99.90;;;;;;5051785;28;20226;-83
2022/04/02 05:25:45;;;;;;;0.30;0.10;;;0.80;99.90;;;;;;5048747;28;20202;-86
2022/04/02 05:28:12;;;;;;;0.30;0.20;;;0.80;99.90;;;;;;5042585;28;21002;-85
2022/04/02 05:30:39;;;;;;;0.30;0.10;;;0.90;99.90;;;;;;5034085;28;20297;-82
2022/04/02 05:33:07;;;;;;;0.30;0.10;;;0.90;99.90;;;;;;5061486;28;20211;-82
2022/04/02 05:35:34;;;;;;;2.45;1.60;;;0.80;99.90;;;;;;5058789;28;20204;-85
2022/04/02 05:38:01;;;;;;;0.40;0.38;;;0.90;99.90;;;;;;5043047;28;20206;-83
2022/04/02 05:40:30;;;;;;;0.30;0.10;;;1.00;99.90;;;;;;5039486;28;20225;-81
2022/04/02 05:42:57;;;;;;;1.20;1.20;;;1.00;99.90;;;;;;5051455;28;20249;-80
2022/04/02 05:45:24;;;;;;;0.40;0.30;;;0.90;99.90;;;;;;5043559;28;20201;-84
2022/04/02 05:47:53;;;;;;;1.08;1.08;;;0.90;99.90;;;;;;5060359;28;20563;-81
2022/04/02 05:50:23;;;;;;;0.30;0.10;;;1.00;99.90;;;;;;5063845;28;20208;-80
2022/04/02 05:52:51;;;;;;;0.30;0.20;;;1.00;99.90;;;;;;5058420;28;20455;-83
2022/04/02 05:55:19;;;;;;;0.30;0.10;;;1.00;99.90;;;;;;5062906;28;20800;-81
2022/04/02 05:57:48;;;;;;;0.30;0.20;;;1.00;99.90;;;;;;5053257;28;20475;-82
2022/04/02 06:00:17;;;;;;;0.30;0.20;;;1.20;99.90;;;;;;5040722;28;20971;-81
2022/04/02 06:02:45;;;;;;;0.30;0.13;;;1.00;99.90;;;;;;5056722;28;20205;-81
2022/04/02 06:05:13;;;;;;;0.30;0.20;;;1.10;99.90;;;;;;5055324;28;21288;-82
2022/04/02 06:07:41;;;;;;;0.30;0.10;;;1.10;99.90;;;;;;5050114;28;20460;-84
2022/04/02 06:10:09;;;;;;;0.30;0.10;;;1.10;99.90;;;;;;5043235;28;20198;-84
2022/04/02 06:12:37;;;;;;;0.30;0.10;;;1.10;99.90;;;;;;5057590;28;20254;-83
2022/04/02 06:15:08;;;;;;;0.30;0.10;;;1.10;99.90;;;;;;5054777;28;20247;-82
2022/04/02 06:17:35;;;;;;;0.30;0.10;;;1.10;99.90;;;;;;5061342;28;20199;-85
2022/04/02 06:20:02;;;;;;;0.30;0.10;;;1.10;99.90;;;;;;5055889;28;20235;-82
2022/04/02 06:22:29;;;;;;;0.65;0.65;;;1.00;99.90;;;;;;5059494;28;20883;-82
2022/04/02 06:24:56;;;;;;;0.30;0.10;;;1.10;99.90;;;;;;5060719;28;20249;-82
2022/04/02 06:27:23;;;;;;;1.80;1.60;;;1.20;99.90;;;;;;5045178;28;20196;-84
2022/04/02 06:29:50;;;;;;;0.30;0.20;;;1.20;99.90;;;;;;5055933;28;20617;-83
2022/04/02 06:32:21;;;;;;;0.52;0.20;;;1.20;99.90;;;;;;5045847;28;20479;-82
2022/04/02 06:34:48;;;;;;;0.30;0.10;;;1.20;99.90;;;;;;5039812;28;21011;-82
2022/04/02 06:37:15;;;;;;;0.40;0.30;;;1.10;99.90;;;;;;5053630;28;20569;-82
2022/04/02 06:39:42;;;;;;;0.30;0.10;;;1.00;99.90;;;;;;5044337;28;20232;-82
2022/04/02 06:42:08;;;;;;;0.80;0.38;;;1.00;99.90;;;;;;5058629;28;20221;-83
2022/04/02 06:44:35;;;;;;;0.47;0.47;;;0.90;99.90;;;;;;5057843;28;20201;-82
2022/04/02 06:47:03;;;;;;;1.17;1.17;;;1.00;99.90;;;;;;5042896;28;20207;-83
2022/04/02 06:49:31;;;;;;;0.30;0.20;;;1.00;99.90;;;;;;5064124;28;20913;-86
2022/04/02 06:51:59;;;;;;;0.30;0.10;;;1.00;99.90;;;;;;5063582;28;20199;-89
2022/04/02 06:54:27;;;;;;;1.10;1.10;;;0.90;99.90;;;;;;5057688;28;20633;-85
2022/04/02 06:56:55;;;;;;;0.30;0.10;;;0.80;99.90;;;;;;5041935;28;20191;-84
2022/04/02 06:59:23;;;;;;;0.30;0.20;;;0.80;99.90;;;;;;5046431;28;20630;-81
2022/04/02 07:01:50;;;;;;;0.30;0.10;;;0.90;99.90;;;;;;5042841;28;20486;-81
2022/04/02 07:04:17;;;;;;;0.40;0.30;;;0.80;99.90;;;;;;5047665;28;20458;-83
2022/04/02 07:06:45;;;;;;;0.30;0.20;;;0.90;99.90;;;;;;5058531;28;20209;-84
2022/04/02 07:09:14;;;;;;;0.30;0.10;;;0.90;99.90;;;;;;5067957;28;20207;-83
2022/04/02 07:11:42;;;;;;;0.40;0.40;;;0.90;99.90;;;;;;5052616;28;20263;-80
2022/04/02 07:14:09;;;;;;;0.30;0.10;;;0.90;99.90;;;;;;5055317;28;20203;-84
2022/04/02 07:16:38;;;;;;;0.30;0.10;;;1.00;99.90;;;;;;5059310;28;20809;-82
2022/04/02 07:19:06;;;;;;;0.30;0.10;;;1.10;99.90;;;;;;5052914;28;20246;-84
2022/04/02 07:21:35;;;;;;;0.30;0.20;;;1.10;99.90;;;;;;5062659;28;20591;-86
2022/04/02 07:24:04;;;;;;;0.30;0.10;;;1.10;99.90;;;;;;5060642;28;20856;-82
2022/04/02 07:26:33;;;;;;;0.40;0.40;;;1.30;99.90;;;;;;5051076;28;20990;-87
2022/04/02 07:29:00;;;;;;;0.40;0.30;;;1.30;99.90;;;;;;5059696;28;20211;-87
2022/04/02 07:31:27;;;;;;;0.57;0.57;;;1.30;99.90;;;;;;5050797;28;20251;-86
2022/04/02 07:33:54;;;;;;;0.40;0.30;;;1.40;99.90;;;;;;5054487;28;20686;-87
2022/04/02 07:36:30;;;;;;;0.40;0.20;;;1.40;99.90;;;;;;5056380;28;20197;-86
2022/04/02 07:39:03;;;;;;;0.30;0.10;;;1.40;99.90;;;;;;5047501;28;20197;-85
2022/04/02 07:41:43;;;;;;;0.30;0.20;;;1.50;99.90;;;;;;5052257;28;20841;-83
2022/04/02 07:44:30;;;;;;;0.30;0.10;;;1.50;99.90;;;;;;5051570;28;20236;-84
2022/04/02 07:46:59;;;;;;;0.30;0.10;;;1.50;99.90;;;;;;5049542;28;20631;-85
2022/04/02 07:49:29;;;;;;;0.60;0.50;;;1.50;99.90;;;;;;5048709;28;22021;-86
2022/04/02 07:51:57;;;;;;;0.40;0.30;;;1.40;99.90;;;;;;5049978;28;20643;-87
2022/04/02 07:54:26;;;;;;;0.30;0.10;;;1.40;99.90;;;;;;5049595;28;20200;-86
2022/04/02 07:56:58;;;;;;;0.30;0.20;;;1.40;99.90;;;;;;5049596;28;20450;-88
2022/04/02 07:59:35;;;;;;;0.40;0.20;;;1.50;99.90;;;;;;5049951;28;20641;-87
2022/04/02 08:02:02;;;;;;;0.30;0.10;;;1.70;99.90;;;;;;5046385;28;20593;-85
2022/04/02 08:04:30;;;;;;;0.30;0.10;;;1.70;99.90;;;;;;5035790;28;20197;-86
2022/04/02 08:06:58;;;;;;;0.30;0.20;;;1.70;99.90;;;;;;5056826;28;20290;-88
2022/04/02 08:09:26;;;;;;;0.30;0.10;;;1.70;99.90;;;;;;5051275;28;20199;-86
2022/04/02 08:11:56;;;;;;;0.57;0.52;;;1.60;99.90;;;;;;5053167;28;20283;-87
2022/04/02 08:14:25;;;;;;;0.30;0.20;;;1.60;99.90;;;;;;5048146;28;20272;-87
2022/04/02 08:16:52;;;;;;;0.30;0.10;;;1.50;99.90;;;;;;5062072;28;20208;-85
2022/04/02 08:19:23;;;;;;;0.30;0.20;;;1.60;99.90;;;;;;5050217;28;20264;-86
2022/04/02 08:21:50;;;;;;;0.30;0.10;;;1.50;99.90;;;;;;5050877;28;20232;-85
2022/04/02 08:24:17;;;;;;;0.30;0.20;;;1.50;99.90;;;;;;5054045;28;20198;-87
2022/04/02 08:26:56;;;;;;;0.30;0.10;;;1.50;99.90;;;;;;5058968;28;20209;-85
2022/04/02 08:29:48;;;;;;;0.30;0.10;;;1.40;99.90;;;;;;5057992;28;20207;-86
2022/04/02 08:32:26;;;;;;;0.30;0.10;;;1.40;99.90;;;;;;5047862;28;20476;-87
2022/04/02 08:35:04;;;;;;;0.40;0.30;;;1.60;99.90;;;;;;5040714;28;20480;-87
2022/04/02 08:37:45;;;;;;;0.30;0.10;;;1.60;99.90;;;;;;5050886;28;20519;-88
2022/04/02 08:40:45;;;;;;;0.30;0.10;;;1.60;99.90;;;;;;5055108;28;20460;-86
2022/04/02 08:43:53;;;;;;;0.30;0.10;;;1.80;99.90;;;;;;5057380;28;20481;-87
2022/04/02 08:46:35;;;;;;;0.30;0.20;;;1.70;99.90;;;;;;4998339;28;20473;-87
2022/04/02 08:49:22;;;;;;;0.30;0.20;;;1.60;99.90;;;;;;5043600;28;20466;-88
2022/04/02 08:52:12;;;;;;;1.03;1.03;;;1.70;99.90;;;;;;5041461;28;20490;-87
2022/04/02 08:54:42;;;;;;;0.77;0.77;;;1.60;99.90;;;;;;5042486;28;20457;-88
2022/04/02 08:57:20;;;;;;;0.30;0.10;;;1.70;99.90;;;;;;5055469;28;20494;-88
2022/04/02 08:59:59;;;;;;;0.30;0.20;;;1.60;99.90;;;;;;5057967;28;20505;-86
2022/04/02 09:02:59;;;;;;;0.30;0.10;;;1.60;99.90;;;;;;5054886;28;21045;-87
2022/04/02 09:05:38;;;;;;;0.30;0.10;;;1.70;99.90;;;;;;5049524;28;20460;-87
2022/04/02 09:08:43;;;;;;;0.65;0.65;;;1.80;99.90;;;;;;5040452;28;20459;-87
2022/04/02 09:11:26;;;;;;;0.30;0.10;;;2.00;99.90;;;;;;5035896;28;20217;-88
2022/04/02 09:14:16;;;;;;;0.30;0.10;;;1.90;99.90;;;;;;5043537;28;20504;-88
2022/04/02 09:17:00;;;;;;;0.30;0.10;;;1.90;99.90;;;;;;5046712;28;20240;-87
2022/04/02 09:19:38;;;;;;;0.50;0.50;;;2.00;99.90;;;;;;5042132;28;20495;-87
2022/04/02 09:22:07;;;;;;;0.30;0.10;;;2.00;99.90;;;;;;5049339;28;20565;-87
2022/04/02 09:25:21;;;;;;;2.40;1.37;;;2.10;99.90;;;;;;5048212;28;20935;-86
2022/04/02 09:28:10;;;;;;;0.30;0.10;;;2.10;99.90;;;;;;5049005;28;20570;-88
2022/04/02 09:31:20;;;;;;;0.60;0.57;;;2.10;99.90;;;;;;5049998;28;20476;-85
2022/04/02 09:34:18;;;;;;;0.33;0.20;;;2.20;99.90;;;;;;5036450;28;20521;-88
2022/04/02 09:37:01;;;;;;;0.30;0.10;;;2.10;99.90;;;;;;5059151;28;20455;-87
2022/04/02 09:39:52;;;;;;;0.30;0.10;;;2.20;99.90;;;;;;5055256;28;20482;-85
2022/04/02 09:42:31;;;;;;;0.30;0.20;;;2.00;99.90;;;;;;5030467;28;20484;-86
2022/04/02 09:45:00;;;;;;;0.30;0.20;;;2.10;99.90;;;;;;5062670;28;20465;-87
2022/04/02 09:47:58;;;;;;;0.30;0.10;;;2.20;99.90;;;;;;5053005;28;20484;-86
2022/04/02 09:50:26;;;;;;;0.30;0.10;;;2.20;99.90;;;;;;5043160;28;20447;-85
2022/04/02 09:53:08;;;;;;;0.30;0.10;;;2.30;99.90;;;;;;5058522;28;20508;-86
2022/04/02 09:55:44;;;;;;;0.30;0.10;;;2.30;99.90;;;;;;5053949;28;20502;-86
2022/04/02 09:58:46;;;;;;;1.53;0.60;;;2.30;99.90;;;;;;5056252;28;20463;-85
2022/04/02 10:01:23;;;;;;;0.30;0.13;;;2.20;99.90;;;;;;5068495;28;20505;-84
2022/04/02 10:03:56;;;;;;;0.30;0.17;;;2.20;99.90;;;;;;5062100;28;20931;-87
2022/04/02 10:06:25;;;;;;;0.30;0.10;;;2.20;99.90;;;;;;5060187;28;20455;-83
2022/04/02 10:09:11;;;;;;;0.30;0.20;;;2.20;99.90;;;;;;5060247;28;20787;-84
2022/04/02 10:11:44;;;;;;;3.60;2.73;;;2.10;99.90;;;;;;5060542;28;20467;-82
2022/04/02 10:14:12;;;;;;;0.83;0.83;;;2.30;99.90;;;;;;5067792;28;20934;-85
2022/04/02 10:16:41;;;;;;;0.30;0.10;;;2.40;99.90;;;;;;5069967;28;20523;-83
2022/04/02 10:19:10;;;;;;;0.30;0.20;;;2.40;99.90;;;;;;5066067;28;20458;-84
2022/04/02 10:21:39;;;;;;;0.70;0.70;;;2.30;99.90;;;;;;5067510;28;20452;-86
2022/04/02 10:24:33;;;;;;;0.60;0.43;;;2.50;99.90;;;;;;5072706;28;20447;-83
2022/04/02 10:27:04;;;;;;;0.30;0.20;;;2.50;99.90;;;;;;5057389;28;20461;-86
2022/04/02 10:30:02;;;;;;;3.93;1.70;;;2.70;99.90;;;;;;5062188;28;20448;-83
2022/04/02 10:32:54;;;;;;;0.30;0.20;;;2.50;99.90;;;;;;5071305;28;20490;-83
2022/04/02 10:35:23;;;;;;;0.30;0.10;;;2.70;99.90;;;;;;5068174;28;20512;-83
2022/04/02 10:38:05;;;;;;;0.30;0.20;;;2.80;99.90;;;;;;5043064;28;20464;-82
2022/04/02 10:40:39;;;;;;;0.30;0.10;;;2.80;99.90;;;;;;5050314;28;20551;-90
2022/04/02 10:43:07;;;;;;;0.30;0.10;;;2.70;99.90;;;;;;5059890;28;20573;-85
2022/04/02 10:45:39;;;;;;;0.40;0.20;;;2.60;99.90;;;;;;5024410;28;20669;-84
2022/04/02 10:48:10;;;;;;;0.30;0.20;;;2.60;99.90;;;;;;5042823;28;20498;-83
2022/04/02 10:50:39;;;;;;;0.30;0.10;;;2.70;99.90;;;;;;5055245;28;20903;-87
2022/04/02 10:53:08;;;;;;;0.30;0.10;;;2.80;99.90;;;;;;5052159;28;20456;-83
2022/04/02 10:55:43;;;;;;;1.60;1.50;;;2.90;99.90;;;;;;5051054;28;20494;-82
2022/04/02 10:58:13;;;;;;;0.30;0.20;;;2.80;99.90;;;;;;5048754;28;20455;-82
2022/04/02 11:00:45;;;;;;;1.13;1.13;;;2.60;99.90;;;;;;5035538;28;20467;-82
2022/04/02 11:03:25;;;;;;;0.30;0.10;;;2.70;99.90;;;;;;5043295;28;20993;-85
2022/04/02 11:05:52;;;;;;;0.30;0.10;;;2.70;99.90;;;;;;5041842;28;20464;-82
2022/04/02 11:08:22;;;;;;;0.30;0.10;;;2.60;99.90;;;;;;5048414;28;20460;-83
2022/04/02 11:10:51;;;;;;;0.30;0.20;;;2.50;99.90;;;;;;5055497;28;20542;-84
2022/04/02 11:13:28;;;;;;;0.97;0.97;;;2.50;99.90;;;;;;5042132;28;21223;-82
2022/04/02 11:15:57;;;;;;;4.30;1.43;;;2.70;99.90;;;;;;5049257;28;20467;-84
2022/04/02 11:18:25;;;;;;;0.63;0.63;;;2.70;99.90;;;;;;5045343;28;20834;-86
2022/04/02 11:21:28;;;;;;;0.30;0.10;;;2.70;99.90;;;;;;5041203;28;21002;-84
2022/04/02 11:24:00;;;;;;;0.40;0.40;;;2.80;99.90;;;;;;5043331;28;20505;-85
2022/04/02 11:26:32;;;;;;;0.30;0.10;;;2.70;99.90;;;;;;5037720;28;20557;-81
2022/04/02 11:29:04;;;;;;;0.40;0.30;;;3.00;99.90;;;;;;5038819;28;20887;-85
2022/04/02 11:31:31;;;;;;;0.30;0.20;;;2.90;99.90;;;;;;5046169;28;20464;-83
2022/04/02 11:33:59;;;;;;;0.30;0.10;;;2.80;99.90;;;;;;5039546;28;20562;-83
2022/04/02 11:36:42;;;;;;;0.30;0.10;;;2.80;99.90;;;;;;5040347;28;20526;-82
2022/04/02 11:39:12;;;;;;;0.30;0.20;;;2.60;99.90;;;;;;5046890;28;21254;-85
2022/04/02 11:41:43;;;;;;;0.30;0.10;;;2.60;99.90;;;;;;5040882;28;20213;-81
2022/04/02 11:44:12;;;;;;;0.30;0.20;;;2.40;99.90;;;;;;5042953;28;20689;-83
2022/04/02 11:46:54;;;;;;;0.30;0.10;;;2.40;99.90;;;;;;5044546;28;21067;-83
2022/04/02 11:49:28;;;;;;;0.30;0.10;;;2.30;99.90;;;;;;5047388;28;20499;-84
2022/04/02 11:52:05;;;;;;;0.93;0.83;;;2.30;99.90;;;;;;5049130;28;20467;-83
2022/04/02 11:54:38;;;;;;;0.30;0.10;;;2.50;99.90;;;;;;5040709;28;20479;-84
2022/04/02 11:57:11;;;;;;;0.30;0.17;;;2.30;99.90;;;;;;5047080;28;20613;-85
2022/04/02 11:59:39;;;;;;;0.90;0.40;;;2.20;99.90;;;;;;5045644;28;20193;-84
2022/04/02 12:02:06;;;;;;;0.30;0.10;;;2.20;99.90;;;;;;5043586;28;20460;-83
2022/04/02 12:04:34;;;;;;;0.30;0.20;;;2.30;99.90;;;;;;5054565;28;20930;-83
2022/04/02 12:07:06;;;;;;;0.30;0.20;;;2.40;99.90;;;;;;5047032;28;20210;-83
2022/04/02 12:09:34;;;;;;;2.37;2.23;;;2.40;99.90;;;;;;5048198;28;20201;-85
2022/04/02 12:12:03;;;;;;;0.40;0.20;;;2.60;99.90;;;;;;5055500;28;20459;-82
2022/04/02 12:14:34;;;;;;;0.30;0.20;;;2.60;99.90;;;;;;5051137;28;20463;-83
2022/04/02 12:17:05;;;;;;;0.30;0.10;;;2.60;99.90;;;;;;5046066;28;20468;-83
2022/04/02 12:19:46;;;;;;;0.30;0.20;;;2.70;99.90;;;;;;5045040;28;20533;-84
2022/04/02 12:22:22;;;;;;;0.30;0.10;;;2.80;99.90;;;;;;5042495;28;20683;-82
2022/04/02 12:24:50;;;;;;;0.30;0.20;;;2.60;99.90;;;;;;5043672;28;20464;-83
2022/04/02 12:27:22;;;;;;;0.65;0.40;;;2.60;99.90;;;;;;5042858;28;20462;-85
2022/04/02 12:29:51;;;;;;;0.30;0.10;;;2.60;99.90;;;;;;5052591;28;20201;-83
2022/04/02 12:32:30;;;;;;;0.40;0.40;;;2.60;99.90;;;;;;5038198;28;20988;-84
2022/04/02 12:34:59;;;;;;;0.30;0.10;;;2.70;99.90;;;;;;5051229;28;20206;-85
2022/04/02 12:37:30;;;;;;;0.40;0.30;;;2.90;99.90;;;;;;5044026;28;20936;-83
2022/04/02 12:39:59;;;;;;;0.30;0.10;;;2.90;99.90;;;;;;5047937;28;20460;-85
2022/04/02 12:42:44;;;;;;;0.30;0.20;;;2.80;99.90;;;;;;5049874;28;21000;-85
2022/04/02 12:45:15;;;;;;;0.40;0.40;;;2.90;99.90;;;;;;5051600;28;20528;-84
2022/04/02 12:47:55;;;;;;;0.40;0.30;;;2.70;99.90;;;;;;5047523;28;20464;-84
2022/04/02 12:50:22;;;;;;;0.30;0.10;;;2.60;99.90;;;;;;5058053;28;20200;-83
2022/04/02 12:52:51;;;;;;;0.30;0.20;;;2.70;99.90;;;;;;5056021;28;20462;-84
2022/04/02 12:55:20;;;;;;;2.20;0.30;;;2.70;99.90;;;;;;5051430;28;20538;-84
2022/04/02 12:58:02;;;;;;;2.70;0.60;;;2.50;99.90;;;;;;5053729;28;20980;-81
2022/04/02 13:00:32;;;;;;;0.30;0.10;;;2.40;99.90;;;;;;5053331;28;20458;-83
2022/04/02 13:03:01;;;;;;;0.30;0.20;;;2.20;99.90;;;;;;5056344;28;20487;-84
2022/04/02 13:05:44;;;;;;;0.30;0.20;;;1.90;99.90;;;;;;5044861;28;20279;-85
2022/04/02 13:08:24;;;;;;;0.30;0.20;;;1.80;99.90;;;;;;5050878;28;20200;-86
2022/04/02 13:10:54;;;;;;;0.30;0.10;;;1.80;99.90;;;;;;5060212;28;20192;-84
2022/04/02 13:13:36;;;;;;;0.30;0.10;;;1.60;99.90;;;;;;5056955;28;20213;-83
2022/04/02 13:16:06;;;;;;;0.30;0.17;;;1.60;99.90;;;;;;5053651;28;20209;-82
2022/04/02 13:21:22;;;;;;;0.30;0.17;;;1.70;99.90;;;;;;5045574;28;20255;-82
2022/04/02 13:24:14;;;;;;;0.30;0.10;;;1.70;99.90;;;;;;5051159;28;20253;-83
2022/04/02 13:26:54;;;;;;;0.30;0.10;;;1.80;99.90;;;;;;5044111;28;20196;-83